This is the latest recevied weather packets stored in our database for station/object KE9DBJ. If no packets are shown the sender has not sent any weather packets the latest 10 day(s).
| Time | Temp. | Humidity | Pressure | Rain* | Wind** | Luminosity | Snow |
|---|---|---|---|---|---|---|---|
| 1777441516 | 16.11° C | 95% | 1011.9 hPa | 0 mm | - | - | - |
| 1777440359 | 16.11° C | 94% | 1011.9 hPa | 0 mm | - | - | - |
| 1777435528 | 15.56° C | 98% | 1010.6 hPa | 0 mm | - | - | - |
| 1777432516 | 15.56° C | 96% | 1012 hPa | 0 mm | - | - | - |
| 1777430138 | 16.11° C | 94% | 1012.9 hPa | 0 mm | - | - | - |
| 1777424151 | 17.78° C | 82% | 1012.5 hPa | 0 mm | - | - | - |
| 1777418125 | 21.67° C | 66% | 1012.8 hPa | 0 mm | - | - | - |
| 1777415727 | 23.33° C | 56% | 1011.4 hPa | 0 mm | - | - | - |
| 1777408519 | 25.56° C | 55% | 1013 hPa | 0 mm | - | - | - |
| 1777406152 | 25° C | 58% | 1013.5 hPa | 0 mm | - | - | - |
| 1777404924 | 25.56° C | 58% | 1013.1 hPa | 0 mm | - | - | - |
| 1777403736 | 25° C | 59% | 1013.2 hPa | 0 mm | - | - | - |
| 1777398918 | 23.89° C | 66% | 1014 hPa | 0 mm | - | - | - |
| 1777397115 | 22.78° C | 73% | 1014.5 hPa | 0 mm | - | - | - |
| 1777391127 | 20.56° C | 85% | 1014.3 hPa | 0 mm | - | - | - |
| 1777388729 | 20° C | 88% | 1013.8 hPa | 0 mm | - | - | - |
| 1777385122 | 19.44° C | 91% | 1013.5 hPa | 0 mm | - | - | - |
| 1777383318 | 18.33° C | 97% | 1012.6 hPa | 0 mm | - | - | - |
| 1777379724 | 17.22° C | 99% | 1012 hPa | 0 mm | - | - | - |
| 1777375516 | 15.56° C | 99% | 1011.3 hPa | 0 mm | - | - | - |
| 1777368332 | 15° C | 99% | 1010.3 hPa | 0 mm | - | - | - |
| 1777365320 | 14.44° C | 99% | 1009.3 hPa | 0 mm | - | - | - |
| 1777364745 | 14.44° C | 99% | 1009.3 hPa | 0 mm | - | - | - |
| 1777362922 | 15° C | 99% | 1008.4 hPa | 0 mm | - | - | - |
| 1777361138 | 15° C | 99% | 1007.8 hPa | 0.25 mm | - | - | - |
* Rain latest hour (hover to see other rain measurements)
** Current wind speed in m/s (hover to see current wind gust speed)